sensor_id;sensor_type;location;lat;lon;timestamp;P1;durP1;ratioP1;P2;durP2;ratioP2
66751;SDS011;53663;42.676;23.238;2022-08-21T00:00:40;10.95;;;5.75;;
66751;SDS011;53663;42.676;23.238;2022-08-21T00:03:06;11.95;;;5.38;;
66751;SDS011;53663;42.676;23.238;2022-08-21T00:05:36;9.02;;;5.45;;
66751;SDS011;53663;42.676;23.238;2022-08-21T00:08:04;17.20;;;5.40;;
66751;SDS011;53663;42.676;23.238;2022-08-21T00:10:30;9.32;;;5.82;;
66751;SDS011;53663;42.676;23.238;2022-08-21T00:12:56;12.05;;;5.68;;
66751;SDS011;53663;42.676;23.238;2022-08-21T00:15:23;9.13;;;5.13;;
66751;SDS011;53663;42.676;23.238;2022-08-21T00:17:52;11.07;;;5.15;;
66751;SDS011;53663;42.676;23.238;2022-08-21T00:20:18;9.07;;;4.60;;
66751;SDS011;53663;42.676;23.238;2022-08-21T00:22:44;13.57;;;5.07;;
66751;SDS011;53663;42.676;23.238;2022-08-21T00:25:10;11.93;;;5.15;;
66751;SDS011;53663;42.676;23.238;2022-08-21T00:27:36;8.98;;;4.88;;
66751;SDS011;53663;42.676;23.238;2022-08-21T00:30:04;15.05;;;4.88;;
66751;SDS011;53663;42.676;23.238;2022-08-21T00:32:31;10.32;;;4.63;;
66751;SDS011;53663;42.676;23.238;2022-08-21T00:34:57;8.75;;;4.43;;
66751;SDS011;53663;42.676;23.238;2022-08-21T00:37:23;11.05;;;4.93;;
66751;SDS011;53663;42.676;23.238;2022-08-21T00:39:49;15.52;;;5.03;;
66751;SDS011;53663;42.676;23.238;2022-08-21T00:42:14;10.73;;;5.93;;
66751;SDS011;53663;42.676;23.238;2022-08-21T00:44:44;9.45;;;5.15;;
66751;SDS011;53663;42.676;23.238;2022-08-21T00:47:11;10.10;;;5.00;;
66751;SDS011;53663;42.676;23.238;2022-08-21T00:49:37;14.18;;;5.07;;
66751;SDS011;53663;42.676;23.238;2022-08-21T00:52:04;11.43;;;5.10;;
66751;SDS011;53663;42.676;23.238;2022-08-21T00:54:32;15.77;;;5.40;;
66751;SDS011;53663;42.676;23.238;2022-08-21T00:57:02;10.43;;;5.90;;
66751;SDS011;53663;42.676;23.238;2022-08-21T00:59:33;8.18;;;4.65;;
66751;SDS011;53663;42.676;23.238;2022-08-21T01:02:00;13.57;;;5.45;;
66751;SDS011;53663;42.676;23.238;2022-08-21T01:04:26;11.88;;;5.43;;
66751;SDS011;53663;42.676;23.238;2022-08-21T01:06:52;9.23;;;4.70;;
66751;SDS011;53663;42.676;23.238;2022-08-21T01:09:17;10.18;;;4.72;;
66751;SDS011;53663;42.676;23.238;2022-08-21T01:11:44;10.02;;;4.90;;
66751;SDS011;53663;42.676;23.238;2022-08-21T01:14:10;10.38;;;4.80;;
66751;SDS011;53663;42.676;23.238;2022-08-21T01:16:38;10.80;;;4.80;;
66751;SDS011;53663;42.676;23.238;2022-08-21T01:19:06;11.95;;;4.90;;
66751;SDS011;53663;42.676;23.238;2022-08-21T01:21:33;8.90;;;4.85;;
66751;SDS011;53663;42.676;23.238;2022-08-21T01:23:59;8.82;;;4.38;;
66751;SDS011;53663;42.676;23.238;2022-08-21T01:26:26;12.05;;;4.60;;
66751;SDS011;53663;42.676;23.238;2022-08-21T01:33:51;9.48;;;4.30;;
66751;SDS011;53663;42.676;23.238;2022-08-21T01:36:17;9.55;;;4.57;;
66751;SDS011;53663;42.676;23.238;2022-08-21T01:38:43;12.82;;;5.18;;
66751;SDS011;53663;42.676;23.238;2022-08-21T01:41:08;10.88;;;4.40;;
66751;SDS011;53663;42.676;23.238;2022-08-21T01:43:34;10.88;;;4.00;;
66751;SDS011;53663;42.676;23.238;2022-08-21T01:45:59;8.07;;;4.10;;
66751;SDS011;53663;42.676;23.238;2022-08-21T01:48:27;13.15;;;4.47;;
66751;SDS011;53663;42.676;23.238;2022-08-21T01:50:52;13.13;;;4.40;;
66751;SDS011;53663;42.676;23.238;2022-08-21T01:53:18;11.68;;;4.53;;
66751;SDS011;53663;42.676;23.238;2022-08-21T01:55:43;10.23;;;4.05;;
66751;SDS011;53663;42.676;23.238;2022-08-21T01:58:09;9.63;;;4.22;;
66751;SDS011;53663;42.676;23.238;2022-08-21T02:00:34;11.23;;;4.25;;
66751;SDS011;53663;42.676;23.238;2022-08-21T02:03:00;7.82;;;3.78;;
66751;SDS011;53663;42.676;23.238;2022-08-21T02:05:25;7.10;;;4.30;;
66751;SDS011;53663;42.676;23.238;2022-08-21T02:07:52;9.55;;;4.47;;
66751;SDS011;53663;42.676;23.238;2022-08-21T02:10:20;12.48;;;4.63;;
66751;SDS011;53663;42.676;23.238;2022-08-21T02:12:51;11.70;;;4.82;;
66751;SDS011;53663;42.676;23.238;2022-08-21T02:15:17;11.68;;;5.93;;
66751;SDS011;53663;42.676;23.238;2022-08-21T02:17:51;14.02;;;7.25;;
66751;SDS011;53663;42.676;23.238;2022-08-21T02:20:21;12.00;;;6.05;;
66751;SDS011;53663;42.676;23.238;2022-08-21T02:22:55;10.95;;;6.45;;
66751;SDS011;53663;42.676;23.238;2022-08-21T02:25:21;14.38;;;8.30;;
66751;SDS011;53663;42.676;23.238;2022-08-21T02:27:48;21.30;;;9.40;;
66751;SDS011;53663;42.676;23.238;2022-08-21T02:30:15;15.80;;;8.80;;
66751;SDS011;53663;42.676;23.238;2022-08-21T02:32:44;15.35;;;10.27;;
66751;SDS011;53663;42.676;23.238;2022-08-21T02:35:10;19.02;;;9.70;;
66751;SDS011;53663;42.676;23.238;2022-08-21T02:40:12;13.85;;;9.00;;
66751;SDS011;53663;42.676;23.238;2022-08-21T02:42:38;15.60;;;8.65;;
66751;SDS011;53663;42.676;23.238;2022-08-21T02:45:05;12.40;;;8.35;;
66751;SDS011;53663;42.676;23.238;2022-08-21T02:47:31;14.48;;;8.63;;
66751;SDS011;53663;42.676;23.238;2022-08-21T02:49:57;15.38;;;9.45;;
66751;SDS011;53663;42.676;23.238;2022-08-21T02:52:22;14.80;;;8.52;;
66751;SDS011;53663;42.676;23.238;2022-08-21T02:54:49;13.88;;;8.95;;
66751;SDS011;53663;42.676;23.238;2022-08-21T02:57:15;15.65;;;8.98;;
66751;SDS011;53663;42.676;23.238;2022-08-21T02:59:41;20.73;;;9.95;;
66751;SDS011;53663;42.676;23.238;2022-08-21T03:02:06;14.27;;;9.02;;
66751;SDS011;53663;42.676;23.238;2022-08-21T03:04:32;17.52;;;8.63;;
66751;SDS011;53663;42.676;23.238;2022-08-21T03:06:58;12.45;;;7.03;;
66751;SDS011;53663;42.676;23.238;2022-08-21T03:09:23;14.27;;;8.05;;
66751;SDS011;53663;42.676;23.238;2022-08-21T03:11:49;18.38;;;7.55;;
66751;SDS011;53663;42.676;23.238;2022-08-21T03:14:16;11.85;;;6.10;;
66751;SDS011;53663;42.676;23.238;2022-08-21T03:16:42;14.85;;;5.90;;
66751;SDS011;53663;42.676;23.238;2022-08-21T03:19:08;9.80;;;4.88;;
66751;SDS011;53663;42.676;23.238;2022-08-21T03:21:34;11.30;;;5.05;;
66751;SDS011;53663;42.676;23.238;2022-08-21T03:23:59;10.88;;;5.35;;
66751;SDS011;53663;42.676;23.238;2022-08-21T03:26:25;12.23;;;4.90;;
66751;SDS011;53663;42.676;23.238;2022-08-21T03:28:51;14.00;;;4.28;;
66751;SDS011;53663;42.676;23.238;2022-08-21T03:31:16;7.47;;;4.10;;
66751;SDS011;53663;42.676;23.238;2022-08-21T03:33:42;7.72;;;3.92;;
66751;SDS011;53663;42.676;23.238;2022-08-21T03:36:08;8.30;;;4.05;;
66751;SDS011;53663;42.676;23.238;2022-08-21T03:38:35;8.70;;;4.13;;
66751;SDS011;53663;42.676;23.238;2022-08-21T03:41:02;14.75;;;4.22;;
66751;SDS011;53663;42.676;23.238;2022-08-21T03:43:29;12.65;;;4.38;;
66751;SDS011;53663;42.676;23.238;2022-08-21T03:45:55;15.27;;;5.03;;
66751;SDS011;53663;42.676;23.238;2022-08-21T03:48:21;12.23;;;4.43;;
66751;SDS011;53663;42.676;23.238;2022-08-21T03:50:46;10.73;;;5.43;;
66751;SDS011;53663;42.676;23.238;2022-08-21T03:53:15;10.60;;;4.80;;
66751;SDS011;53663;42.676;23.238;2022-08-21T03:55:41;13.55;;;5.13;;
66751;SDS011;53663;42.676;23.238;2022-08-21T03:58:07;13.77;;;4.65;;
66751;SDS011;53663;42.676;23.238;2022-08-21T04:00:33;11.57;;;6.13;;
66751;SDS011;53663;42.676;23.238;2022-08-21T04:02:58;23.63;;;8.73;;
66751;SDS011;53663;42.676;23.238;2022-08-21T04:05:24;15.60;;;8.07;;
66751;SDS011;53663;42.676;23.238;2022-08-21T04:08:02;13.82;;;8.55;;
66751;SDS011;53663;42.676;23.238;2022-08-21T04:10:30;19.30;;;9.02;;
66751;SDS011;53663;42.676;23.238;2022-08-21T04:12:59;30.17;;;15.43;;
66751;SDS011;53663;42.676;23.238;2022-08-21T04:15:25;29.15;;;14.70;;
66751;SDS011;53663;42.676;23.238;2022-08-21T04:17:51;25.70;;;14.35;;
66751;SDS011;53663;42.676;23.238;2022-08-21T04:20:17;23.35;;;13.65;;
66751;SDS011;53663;42.676;23.238;2022-08-21T04:22:44;34.92;;;16.80;;
66751;SDS011;53663;42.676;23.238;2022-08-21T04:25:11;42.65;;;18.75;;
66751;SDS011;53663;42.676;23.238;2022-08-21T04:27:38;34.97;;;19.02;;
66751;SDS011;53663;42.676;23.238;2022-08-21T04:30:05;34.03;;;19.58;;
66751;SDS011;53663;42.676;23.238;2022-08-21T04:32:31;30.50;;;17.48;;
66751;SDS011;53663;42.676;23.238;2022-08-21T04:34:58;38.22;;;19.38;;
66751;SDS011;53663;42.676;23.238;2022-08-21T04:37:25;36.42;;;18.88;;
66751;SDS011;53663;42.676;23.238;2022-08-21T04:39:50;37.90;;;19.52;;
66751;SDS011;53663;42.676;23.238;2022-08-21T04:42:16;35.28;;;17.90;;
66751;SDS011;53663;42.676;23.238;2022-08-21T04:44:42;28.73;;;16.60;;
66751;SDS011;53663;42.676;23.238;2022-08-21T04:47:07;25.60;;;14.60;;
66751;SDS011;53663;42.676;23.238;2022-08-21T04:49:33;32.22;;;15.77;;
66751;SDS011;53663;42.676;23.238;2022-08-21T04:51:59;26.23;;;15.38;;
66751;SDS011;53663;42.676;23.238;2022-08-21T04:54:26;23.23;;;13.80;;
66751;SDS011;53663;42.676;23.238;2022-08-21T04:56:52;34.55;;;17.10;;
66751;SDS011;53663;42.676;23.238;2022-08-21T04:59:33;28.02;;;15.40;;
66751;SDS011;53663;42.676;23.238;2022-08-21T05:02:03;24.88;;;12.95;;
66751;SDS011;53663;42.676;23.238;2022-08-21T05:04:31;18.77;;;10.80;;
66751;SDS011;53663;42.676;23.238;2022-08-21T05:06:59;21.13;;;10.13;;
66751;SDS011;53663;42.676;23.238;2022-08-21T05:09:28;16.17;;;8.80;;
66751;SDS011;53663;42.676;23.238;2022-08-21T05:11:55;13.20;;;6.00;;
66751;SDS011;53663;42.676;23.238;2022-08-21T05:14:21;12.00;;;6.20;;
66751;SDS011;53663;42.676;23.238;2022-08-21T05:16:47;12.57;;;5.72;;
66751;SDS011;53663;42.676;23.238;2022-08-21T05:19:13;15.20;;;6.25;;
66751;SDS011;53663;42.676;23.238;2022-08-21T05:21:42;12.15;;;5.45;;
66751;SDS011;53663;42.676;23.238;2022-08-21T05:24:09;11.38;;;5.90;;
66751;SDS011;53663;42.676;23.238;2022-08-21T05:26:36;8.05;;;5.68;;
66751;SDS011;53663;42.676;23.238;2022-08-21T05:29:03;10.25;;;5.15;;
66751;SDS011;53663;42.676;23.238;2022-08-21T05:31:29;15.75;;;5.82;;
66751;SDS011;53663;42.676;23.238;2022-08-21T05:33:55;14.43;;;5.63;;
66751;SDS011;53663;42.676;23.238;2022-08-21T05:36:21;17.45;;;5.57;;
66751;SDS011;53663;42.676;23.238;2022-08-21T05:38:47;13.73;;;5.60;;
66751;SDS011;53663;42.676;23.238;2022-08-21T05:41:13;11.20;;;5.40;;
66751;SDS011;53663;42.676;23.238;2022-08-21T05:43:38;8.52;;;4.90;;
66751;SDS011;53663;42.676;23.238;2022-08-21T05:46:04;12.30;;;5.72;;
66751;SDS011;53663;42.676;23.238;2022-08-21T05:48:31;15.32;;;5.32;;
66751;SDS011;53663;42.676;23.238;2022-08-21T05:50:57;10.68;;;5.68;;
66751;SDS011;53663;42.676;23.238;2022-08-21T05:53:23;10.55;;;5.82;;
66751;SDS011;53663;42.676;23.238;2022-08-21T05:55:50;10.57;;;5.85;;
66751;SDS011;53663;42.676;23.238;2022-08-21T05:58:17;11.23;;;4.97;;
66751;SDS011;53663;42.676;23.238;2022-08-21T06:00:45;11.80;;;5.20;;
66751;SDS011;53663;42.676;23.238;2022-08-21T06:03:20;12.20;;;5.00;;
66751;SDS011;53663;42.676;23.238;2022-08-21T06:05:47;15.35;;;5.05;;
66751;SDS011;53663;42.676;23.238;2022-08-21T06:08:13;9.85;;;4.13;;
66751;SDS011;53663;42.676;23.238;2022-08-21T06:10:40;11.18;;;4.10;;
66751;SDS011;53663;42.676;23.238;2022-08-21T06:13:05;11.85;;;3.70;;
66751;SDS011;53663;42.676;23.238;2022-08-21T06:15:31;11.32;;;3.78;;
66751;SDS011;53663;42.676;23.238;2022-08-21T06:17:56;8.68;;;3.47;;
66751;SDS011;53663;42.676;23.238;2022-08-21T06:20:22;8.50;;;3.30;;
66751;SDS011;53663;42.676;23.238;2022-08-21T06:22:48;14.45;;;3.88;;
66751;SDS011;53663;42.676;23.238;2022-08-21T06:25:13;7.72;;;3.13;;
66751;SDS011;53663;42.676;23.238;2022-08-21T06:27:39;15.05;;;3.45;;
66751;SDS011;53663;42.676;23.238;2022-08-21T06:30:05;6.32;;;3.30;;
66751;SDS011;53663;42.676;23.238;2022-08-21T06:32:31;11.20;;;4.05;;
66751;SDS011;53663;42.676;23.238;2022-08-21T06:34:57;14.05;;;6.07;;
66751;SDS011;53663;42.676;23.238;2022-08-21T06:37:22;12.88;;;6.18;;
66751;SDS011;53663;42.676;23.238;2022-08-21T06:39:48;11.82;;;6.22;;
66751;SDS011;53663;42.676;23.238;2022-08-21T06:42:14;15.50;;;6.32;;
66751;SDS011;53663;42.676;23.238;2022-08-21T06:44:40;16.90;;;6.78;;
66751;SDS011;53663;42.676;23.238;2022-08-21T06:47:06;13.93;;;8.55;;
66751;SDS011;53663;42.676;23.238;2022-08-21T06:49:32;13.52;;;9.55;;
66751;SDS011;53663;42.676;23.238;2022-08-21T06:51:57;16.10;;;10.02;;
66751;SDS011;53663;42.676;23.238;2022-08-21T06:54:23;25.70;;;10.23;;
66751;SDS011;53663;42.676;23.238;2022-08-21T06:56:48;49.80;;;26.83;;
66751;SDS011;53663;42.676;23.238;2022-08-21T06:59:14;38.65;;;20.90;;
66751;SDS011;53663;42.676;23.238;2022-08-21T07:01:40;32.55;;;17.50;;
66751;SDS011;53663;42.676;23.238;2022-08-21T07:04:06;34.88;;;19.30;;
66751;SDS011;53663;42.676;23.238;2022-08-21T07:06:32;17.85;;;11.77;;
66751;SDS011;53663;42.676;23.238;2022-08-21T07:08:58;27.63;;;13.88;;
66751;SDS011;53663;42.676;23.238;2022-08-21T07:11:23;22.85;;;11.43;;
66751;SDS011;53663;42.676;23.238;2022-08-21T07:13:49;36.03;;;21.67;;
66751;SDS011;53663;42.676;23.238;2022-08-21T07:16:18;23.85;;;11.13;;
66751;SDS011;53663;42.676;23.238;2022-08-21T07:18:44;42.22;;;24.35;;
66751;SDS011;53663;42.676;23.238;2022-08-21T07:21:10;27.00;;;16.27;;
66751;SDS011;53663;42.676;23.238;2022-08-21T07:23:40;16.08;;;9.18;;
66751;SDS011;53663;42.676;23.238;2022-08-21T07:26:09;29.17;;;15.15;;
66751;SDS011;53663;42.676;23.238;2022-08-21T07:28:35;23.05;;;10.90;;
66751;SDS011;53663;42.676;23.238;2022-08-21T07:31:02;28.02;;;13.63;;
66751;SDS011;53663;42.676;23.238;2022-08-21T07:33:29;20.33;;;9.05;;
66751;SDS011;53663;42.676;23.238;2022-08-21T07:35:56;17.88;;;9.55;;
66751;SDS011;53663;42.676;23.238;2022-08-21T07:38:22;19.77;;;9.30;;
66751;SDS011;53663;42.676;23.238;2022-08-21T07:40:48;17.70;;;8.18;;
66751;SDS011;53663;42.676;23.238;2022-08-21T07:43:16;13.35;;;7.07;;
66751;SDS011;53663;42.676;23.238;2022-08-21T07:45:43;12.40;;;6.68;;
66751;SDS011;53663;42.676;23.238;2022-08-21T07:48:09;14.18;;;8.07;;
66751;SDS011;53663;42.676;23.238;2022-08-21T07:50:35;16.35;;;7.03;;
66751;SDS011;53663;42.676;23.238;2022-08-21T07:53:01;12.95;;;8.10;;
66751;SDS011;53663;42.676;23.238;2022-08-21T07:55:27;14.38;;;7.97;;
66751;SDS011;53663;42.676;23.238;2022-08-21T07:57:53;15.23;;;7.65;;
66751;SDS011;53663;42.676;23.238;2022-08-21T08:00:20;16.75;;;7.95;;
66751;SDS011;53663;42.676;23.238;2022-08-21T08:02:49;15.50;;;7.53;;
66751;SDS011;53663;42.676;23.238;2022-08-21T08:05:17;13.65;;;6.93;;
66751;SDS011;53663;42.676;23.238;2022-08-21T08:07:44;16.35;;;7.25;;
66751;SDS011;53663;42.676;23.238;2022-08-21T08:10:10;13.10;;;8.55;;
66751;SDS011;53663;42.676;23.238;2022-08-21T08:12:37;17.13;;;8.20;;
66751;SDS011;53663;42.676;23.238;2022-08-21T08:15:05;14.82;;;8.00;;
66751;SDS011;53663;42.676;23.238;2022-08-21T08:17:33;16.00;;;7.30;;
66751;SDS011;53663;42.676;23.238;2022-08-21T08:19:59;13.93;;;7.53;;
66751;SDS011;53663;42.676;23.238;2022-08-21T08:22:26;13.10;;;6.43;;
66751;SDS011;53663;42.676;23.238;2022-08-21T08:24:52;22.40;;;8.38;;
66751;SDS011;53663;42.676;23.238;2022-08-21T08:27:19;11.23;;;6.13;;
66751;SDS011;53663;42.676;23.238;2022-08-21T08:29:46;14.02;;;8.85;;
66751;SDS011;53663;42.676;23.238;2022-08-21T08:32:12;15.45;;;8.48;;
66751;SDS011;53663;42.676;23.238;2022-08-21T08:34:38;12.30;;;6.95;;
66751;SDS011;53663;42.676;23.238;2022-08-21T08:37:04;17.38;;;7.53;;
66751;SDS011;53663;42.676;23.238;2022-08-21T08:39:32;13.20;;;7.53;;
66751;SDS011;53663;42.676;23.238;2022-08-21T08:42:11;9.88;;;7.05;;
66751;SDS011;53663;42.676;23.238;2022-08-21T08:44:41;15.77;;;7.30;;
66751;SDS011;53663;42.676;23.238;2022-08-21T08:47:08;14.32;;;7.38;;
66751;SDS011;53663;42.676;23.238;2022-08-21T08:52:30;14.35;;;6.32;;
66751;SDS011;53663;42.676;23.238;2022-08-21T08:55:21;13.52;;;6.25;;
66751;SDS011;53663;42.676;23.238;2022-08-21T08:57:47;14.15;;;6.28;;
66751;SDS011;53663;42.676;23.238;2022-08-21T09:00:15;14.38;;;6.03;;
66751;SDS011;53663;42.676;23.238;2022-08-21T09:02:45;13.10;;;6.10;;
66751;SDS011;53663;42.676;23.238;2022-08-21T09:08:28;12.13;;;5.68;;
66751;SDS011;53663;42.676;23.238;2022-08-21T09:16:50;13.70;;;6.30;;
66751;SDS011;53663;42.676;23.238;2022-08-21T09:24:54;13.70;;;6.47;;
66751;SDS011;53663;42.676;23.238;2022-08-21T09:27:24;11.90;;;5.80;;
66751;SDS011;53663;42.676;23.238;2022-08-21T09:29:52;14.15;;;6.13;;
66751;SDS011;53663;42.676;23.238;2022-08-21T09:32:28;9.15;;;5.68;;
66751;SDS011;53663;42.676;23.238;2022-08-21T09:35:00;12.23;;;5.95;;
66751;SDS011;53663;42.676;23.238;2022-08-21T09:40:40;8.55;;;4.47;;
66751;SDS011;53663;42.676;23.238;2022-08-21T09:45:37;10.93;;;4.90;;
66751;SDS011;53663;42.676;23.238;2022-08-21T09:48:11;11.43;;;5.00;;
66751;SDS011;53663;42.676;23.238;2022-08-21T09:50:38;11.93;;;5.00;;
66751;SDS011;53663;42.676;23.238;2022-08-21T09:53:05;15.32;;;4.72;;
66751;SDS011;53663;42.676;23.238;2022-08-21T09:55:46;15.00;;;5.60;;
66751;SDS011;53663;42.676;23.238;2022-08-21T09:58:34;17.30;;;6.75;;
66751;SDS011;53663;42.676;23.238;2022-08-21T10:01:03;15.90;;;6.15;;
66751;SDS011;53663;42.676;23.238;2022-08-21T10:03:31;9.45;;;4.95;;
66751;SDS011;53663;42.676;23.238;2022-08-21T10:08:30;14.18;;;5.57;;
66751;SDS011;53663;42.676;23.238;2022-08-21T10:11:02;11.18;;;5.38;;
66751;SDS011;53663;42.676;23.238;2022-08-21T10:24:20;9.57;;;4.95;;
66751;SDS011;53663;42.676;23.238;2022-08-21T10:35:29;10.25;;;4.20;;
66751;SDS011;53663;42.676;23.238;2022-08-21T10:41:28;8.60;;;4.05;;
66751;SDS011;53663;42.676;23.238;2022-08-21T10:46:07;7.85;;;4.25;;
66751;SDS011;53663;42.676;23.238;2022-08-21T10:54:38;8.35;;;4.47;;
66751;SDS011;53663;42.676;23.238;2022-08-21T11:00:23;12.27;;;4.85;;
66751;SDS011;53663;42.676;23.238;2022-08-21T11:05:50;11.05;;;4.22;;
66751;SDS011;53663;42.676;23.238;2022-08-21T11:16:23;15.75;;;4.68;;
66751;SDS011;53663;42.676;23.238;2022-08-21T11:18:55;10.02;;;4.28;;
66751;SDS011;53663;42.676;23.238;2022-08-21T11:21:44;9.88;;;4.32;;
66751;SDS011;53663;42.676;23.238;2022-08-21T11:30:11;10.20;;;4.85;;
66751;SDS011;53663;42.676;23.238;2022-08-21T11:35:32;14.07;;;5.03;;
66751;SDS011;53663;42.676;23.238;2022-08-21T11:43:45;11.35;;;4.90;;
66751;SDS011;53663;42.676;23.238;2022-08-21T11:51:27;8.07;;;4.15;;
66751;SDS011;53663;42.676;23.238;2022-08-21T11:54:03;8.15;;;4.13;;
66751;SDS011;53663;42.676;23.238;2022-08-21T11:56:32;14.20;;;4.05;;
66751;SDS011;53663;42.676;23.238;2022-08-21T11:59:04;9.23;;;3.72;;
66751;SDS011;53663;42.676;23.238;2022-08-21T12:01:36;8.75;;;3.90;;
66751;SDS011;53663;42.676;23.238;2022-08-21T12:06:49;11.00;;;3.55;;
66751;SDS011;53663;42.676;23.238;2022-08-21T12:20:25;7.78;;;4.32;;
66751;SDS011;53663;42.676;23.238;2022-08-21T12:23:05;11.85;;;4.20;;
66751;SDS011;53663;42.676;23.238;2022-08-21T12:25:46;8.23;;;4.32;;
66751;SDS011;53663;42.676;23.238;2022-08-21T12:28:25;11.38;;;4.45;;
66751;SDS011;53663;42.676;23.238;2022-08-21T12:30:51;8.93;;;3.67;;
66751;SDS011;53663;42.676;23.238;2022-08-21T12:33:36;11.30;;;3.63;;
66751;SDS011;53663;42.676;23.238;2022-08-21T12:41:17;9.23;;;3.72;;
66751;SDS011;53663;42.676;23.238;2022-08-21T12:43:50;13.18;;;4.18;;
66751;SDS011;53663;42.676;23.238;2022-08-21T12:46:21;8.48;;;3.78;;
66751;SDS011;53663;42.676;23.238;2022-08-21T12:48:56;9.00;;;3.88;;
66751;SDS011;53663;42.676;23.238;2022-08-21T12:54:28;9.80;;;3.97;;
66751;SDS011;53663;42.676;23.238;2022-08-21T12:56:57;11.60;;;3.80;;
66751;SDS011;53663;42.676;23.238;2022-08-21T12:59:28;11.57;;;4.30;;
66751;SDS011;53663;42.676;23.238;2022-08-21T13:01:55;7.00;;;3.78;;
66751;SDS011;53663;42.676;23.238;2022-08-21T13:04:24;7.15;;;3.33;;
66751;SDS011;53663;42.676;23.238;2022-08-21T13:06:58;8.82;;;3.80;;
66751;SDS011;53663;42.676;23.238;2022-08-21T13:09:26;8.38;;;3.88;;
66751;SDS011;53663;42.676;23.238;2022-08-21T13:11:54;7.57;;;3.50;;
66751;SDS011;53663;42.676;23.238;2022-08-21T13:17:06;7.13;;;3.33;;
66751;SDS011;53663;42.676;23.238;2022-08-21T13:19:33;8.85;;;3.50;;
66751;SDS011;53663;42.676;23.238;2022-08-21T13:22:00;7.90;;;3.60;;
66751;SDS011;53663;42.676;23.238;2022-08-21T13:24:33;10.35;;;3.40;;
66751;SDS011;53663;42.676;23.238;2022-08-21T13:27:00;12.30;;;3.70;;
66751;SDS011;53663;42.676;23.238;2022-08-21T13:29:27;7.80;;;3.40;;
66751;SDS011;53663;42.676;23.238;2022-08-21T13:31:59;8.30;;;3.55;;
66751;SDS011;53663;42.676;23.238;2022-08-21T13:34:28;9.02;;;3.70;;
66751;SDS011;53663;42.676;23.238;2022-08-21T13:37:00;10.40;;;3.75;;
66751;SDS011;53663;42.676;23.238;2022-08-21T13:39:28;9.32;;;3.88;;
66751;SDS011;53663;42.676;23.238;2022-08-21T13:41:55;7.95;;;3.63;;
66751;SDS011;53663;42.676;23.238;2022-08-21T13:44:30;8.95;;;3.67;;
66751;SDS011;53663;42.676;23.238;2022-08-21T13:47:02;7.88;;;3.63;;
66751;SDS011;53663;42.676;23.238;2022-08-21T13:49:30;8.18;;;3.67;;
66751;SDS011;53663;42.676;23.238;2022-08-21T13:51:58;8.73;;;3.65;;
66751;SDS011;53663;42.676;23.238;2022-08-21T13:54:25;8.52;;;3.25;;
66751;SDS011;53663;42.676;23.238;2022-08-21T13:56:59;11.27;;;3.88;;
66751;SDS011;53663;42.676;23.238;2022-08-21T13:59:26;13.13;;;3.58;;
66751;SDS011;53663;42.676;23.238;2022-08-21T14:01:58;12.18;;;3.70;;
66751;SDS011;53663;42.676;23.238;2022-08-21T14:04:34;11.13;;;4.22;;
66751;SDS011;53663;42.676;23.238;2022-08-21T14:07:01;8.20;;;3.67;;
66751;SDS011;53663;42.676;23.238;2022-08-21T14:12:00;10.23;;;3.97;;
66751;SDS011;53663;42.676;23.238;2022-08-21T14:17:00;8.55;;;3.72;;
66751;SDS011;53663;42.676;23.238;2022-08-21T14:19:44;8.07;;;4.10;;
66751;SDS011;53663;42.676;23.238;2022-08-21T14:22:27;9.75;;;4.20;;
66751;SDS011;53663;42.676;23.238;2022-08-21T14:25:00;9.63;;;4.40;;
66751;SDS011;53663;42.676;23.238;2022-08-21T14:27:31;13.15;;;5.15;;
66751;SDS011;53663;42.676;23.238;2022-08-21T14:29:59;8.93;;;3.63;;
66751;SDS011;53663;42.676;23.238;2022-08-21T14:32:28;9.93;;;4.50;;
66751;SDS011;53663;42.676;23.238;2022-08-21T14:34:56;13.20;;;4.50;;
66751;SDS011;53663;42.676;23.238;2022-08-21T14:37:22;14.80;;;4.43;;
66751;SDS011;53663;42.676;23.238;2022-08-21T14:39:48;10.65;;;4.57;;
66751;SDS011;53663;42.676;23.238;2022-08-21T14:42:14;13.38;;;4.60;;
66751;SDS011;53663;42.676;23.238;2022-08-21T14:44:40;9.50;;;5.10;;
66751;SDS011;53663;42.676;23.238;2022-08-21T14:47:06;12.20;;;4.57;;
66751;SDS011;53663;42.676;23.238;2022-08-21T14:49:33;17.70;;;5.53;;
66751;SDS011;53663;42.676;23.238;2022-08-21T14:51:59;9.30;;;4.28;;
66751;SDS011;53663;42.676;23.238;2022-08-21T14:54:25;16.27;;;5.50;;
66751;SDS011;53663;42.676;23.238;2022-08-21T14:56:52;13.32;;;4.72;;
66751;SDS011;53663;42.676;23.238;2022-08-21T14:59:20;11.52;;;4.70;;
66751;SDS011;53663;42.676;23.238;2022-08-21T15:01:46;8.55;;;4.20;;
66751;SDS011;53663;42.676;23.238;2022-08-21T15:04:11;10.60;;;4.65;;
66751;SDS011;53663;42.676;23.238;2022-08-21T15:06:37;12.20;;;4.35;;
66751;SDS011;53663;42.676;23.238;2022-08-21T15:09:02;12.57;;;5.05;;
66751;SDS011;53663;42.676;23.238;2022-08-21T15:11:30;11.80;;;4.60;;
66751;SDS011;53663;42.676;23.238;2022-08-21T15:14:00;7.82;;;4.25;;
66751;SDS011;53663;42.676;23.238;2022-08-21T15:16:29;15.35;;;4.28;;
66751;SDS011;53663;42.676;23.238;2022-08-21T15:18:58;9.48;;;4.35;;
66751;SDS011;53663;42.676;23.238;2022-08-21T15:21:23;9.60;;;4.57;;
66751;SDS011;53663;42.676;23.238;2022-08-21T15:23:49;10.73;;;4.78;;
66751;SDS011;53663;42.676;23.238;2022-08-21T15:26:14;12.55;;;4.50;;
66751;SDS011;53663;42.676;23.238;2022-08-21T15:28:40;13.52;;;4.78;;
66751;SDS011;53663;42.676;23.238;2022-08-21T15:31:06;10.20;;;4.55;;
66751;SDS011;53663;42.676;23.238;2022-08-21T15:33:32;7.50;;;3.92;;
66751;SDS011;53663;42.676;23.238;2022-08-21T15:35:59;10.07;;;4.43;;
66751;SDS011;53663;42.676;23.238;2022-08-21T15:38:24;9.95;;;4.70;;
66751;SDS011;53663;42.676;23.238;2022-08-21T15:40:50;12.38;;;4.80;;
66751;SDS011;53663;42.676;23.238;2022-08-21T15:43:26;11.68;;;4.80;;
66751;SDS011;53663;42.676;23.238;2022-08-21T15:45:54;18.83;;;4.85;;
66751;SDS011;53663;42.676;23.238;2022-08-21T15:48:19;10.63;;;4.95;;
66751;SDS011;53663;42.676;23.238;2022-08-21T15:50:45;10.93;;;4.63;;
66751;SDS011;53663;42.676;23.238;2022-08-21T15:53:11;12.43;;;5.03;;
66751;SDS011;53663;42.676;23.238;2022-08-21T15:55:38;15.77;;;4.97;;
66751;SDS011;53663;42.676;23.238;2022-08-21T15:58:04;9.20;;;5.32;;
66751;SDS011;53663;42.676;23.238;2022-08-21T16:00:31;11.45;;;4.85;;
66751;SDS011;53663;42.676;23.238;2022-08-21T16:03:00;11.73;;;5.00;;
66751;SDS011;53663;42.676;23.238;2022-08-21T16:05:29;15.55;;;4.72;;
66751;SDS011;53663;42.676;23.238;2022-08-21T16:07:55;10.93;;;5.10;;
66751;SDS011;53663;42.676;23.238;2022-08-21T16:10:21;10.55;;;4.40;;
66751;SDS011;53663;42.676;23.238;2022-08-21T16:13:23;10.15;;;4.80;;
66751;SDS011;53663;42.676;23.238;2022-08-21T16:15:42;10.25;;;5.30;;
66751;SDS011;53663;42.676;23.238;2022-08-21T16:18:08;7.65;;;4.82;;
66751;SDS011;53663;42.676;23.238;2022-08-21T16:20:34;15.25;;;4.82;;
66751;SDS011;53663;42.676;23.238;2022-08-21T16:23:00;11.52;;;5.35;;
66751;SDS011;53663;42.676;23.238;2022-08-21T16:25:26;8.77;;;5.53;;
66751;SDS011;53663;42.676;23.238;2022-08-21T16:27:52;12.88;;;5.80;;
66751;SDS011;53663;42.676;23.238;2022-08-21T16:30:20;10.18;;;5.53;;
66751;SDS011;53663;42.676;23.238;2022-08-21T16:32:46;11.10;;;5.93;;
66751;SDS011;53663;42.676;23.238;2022-08-21T16:35:15;13.38;;;5.70;;